createdAt,value
2023-03-06T00:03:33.748Z,99492.06
2023-03-06T00:08:55.659Z,99497.91
2023-03-06T00:14:17.580Z,99492.88
2023-03-06T00:19:39.458Z,99497.91
2023-03-06T00:25:01.359Z,99479.19
2023-03-06T00:30:24.740Z,99500.34
2023-03-06T00:35:46.721Z,99499.44
2023-03-06T00:41:12.945Z,99505.28
2023-03-06T00:46:35.078Z,99485.09
2023-03-06T00:51:57.067Z,99496.06
2023-03-06T00:57:18.983Z,99493.47
2023-03-06T01:02:41.290Z,99499.28
2023-03-06T01:08:04.520Z,99491.72
2023-03-06T01:13:26.793Z,99489.97
2023-03-06T01:18:49.074Z,99496.69
2023-03-06T01:24:10.968Z,99488.25
2023-03-06T01:29:27.219Z,99491.63
2023-03-06T01:34:49.689Z,99494.88
2023-03-06T01:40:12.768Z,99484.00
2023-03-06T01:45:34.647Z,99483.13
2023-03-06T01:50:56.550Z,99482.28
2023-03-06T01:56:19.229Z,99470.50
2023-03-06T02:01:41.978Z,99475.56
2023-03-06T02:07:04.236Z,99468.84
2023-03-06T02:12:26.664Z,99468.88
2023-03-06T02:17:51.040Z,99468.88
2023-03-06T02:23:36.454Z,99476.38
2023-03-06T02:28:58.315Z,99475.56
2023-03-06T02:34:20.180Z,99463.81
2023-03-06T02:39:47.847Z,99470.50
2023-03-06T02:45:12.948Z,99472.22
2023-03-06T02:50:34.930Z,99475.53
2023-03-06T02:55:56.807Z,99472.97
2023-03-06T03:01:18.813Z,99472.16
2023-03-06T03:06:40.756Z,99471.28
2023-03-06T03:12:06.981Z,99466.22
2023-03-06T03:17:28.845Z,99466.94
2023-03-06T03:22:53.774Z,99455.94
2023-03-06T03:28:15.997Z,99469.38
2023-03-06T03:33:38.881Z,99471.13
2023-03-06T03:39:00.815Z,99468.50
2023-03-06T03:44:22.781Z,99467.69
2023-03-06T03:49:44.862Z,99470.16
2023-03-06T03:55:07.375Z,99460.03
2023-03-06T04:00:29.300Z,99457.50
2023-03-06T04:05:51.281Z,99453.22
2023-03-06T04:11:13.192Z,99449.94
2023-03-06T04:16:35.432Z,99445.72
2023-03-06T04:21:57.329Z,99442.28
2023-03-06T04:27:19.220Z,99449.00
2023-03-06T04:32:41.184Z,99443.03
2023-03-06T04:38:03.641Z,99436.28
2023-03-06T04:43:25.525Z,99437.13
2023-03-06T04:48:47.659Z,99436.28
2023-03-06T04:54:09.586Z,99438.84
2023-03-06T04:59:31.568Z,99438.88
2023-03-06T05:04:53.469Z,99410.97
2023-03-06T05:10:16.959Z,99411.91
2023-03-06T05:15:42.115Z,99437.34
2023-03-06T05:21:05.409Z,99433.19
2023-03-06T05:26:28.324Z,99427.56
2023-03-06T05:31:50.278Z,99427.75
2023-03-06T05:37:12.370Z,99418.63
2023-03-06T05:42:34.383Z,99416.31
2023-03-06T05:47:56.237Z,99408.69
2023-03-06T05:53:18.088Z,99405.59
2023-03-06T05:58:40.142Z,99398.13
2023-03-06T06:04:02.033Z,99396.34
2023-03-06T06:09:25.080Z,99391.59
2023-03-06T06:14:47.042Z,99389.13
2023-03-06T06:20:09.444Z,99393.22
2023-03-06T06:25:31.718Z,99384.56
2023-03-06T06:30:53.850Z,99390.56
2023-03-06T06:36:18.788Z,99407.16
2023-03-06T06:41:55.530Z,99412.19
2023-03-06T06:47:25.179Z,99405.66
2023-03-06T06:52:47.714Z,99400.28
2023-03-06T06:58:09.623Z,99381.19
2023-03-06T07:03:31.678Z,99374.13
2023-03-06T07:08:53.654Z,99381.50
2023-03-06T07:14:15.815Z,99371.00
2023-03-06T07:19:38.674Z,99374.53
2023-03-06T07:25:01.701Z,99361.38
2023-03-06T07:30:24.289Z,99363.97
2023-03-06T07:35:46.310Z,99353.53
2023-03-06T07:41:08.252Z,99376.03
2023-03-06T07:46:30.346Z,99379.81
2023-03-06T07:51:52.325Z,99370.16
2023-03-06T07:57:14.278Z,99375.50
2023-03-06T08:02:36.220Z,99369.72
2023-03-06T08:07:58.186Z,99382.75
2023-03-06T08:13:20.203Z,99382.22
2023-03-06T08:18:43.173Z,99387.66
2023-03-06T08:24:07.634Z,99400.28
2023-03-06T08:29:32.090Z,99400.72
2023-03-06T08:34:54.228Z,99386.72
2023-03-06T08:40:16.394Z,99396.75
2023-03-06T08:45:38.356Z,99405.06
2023-03-06T08:51:00.307Z,99397.50
2023-03-06T08:56:30.529Z,99378.22
2023-03-06T09:01:52.500Z,99378.38
2023-03-06T09:07:14.420Z,99376.97
2023-03-06T09:12:48.852Z,99390.03
2023-03-06T09:18:11.890Z,99377.28
2023-03-06T09:23:33.984Z,99366.63
2023-03-06T09:28:56.149Z,99375.38
2023-03-06T09:34:18.055Z,99380.66
2023-03-06T09:39:39.931Z,99387.44
2023-03-06T09:45:04.168Z,99388.34
2023-03-06T09:50:59.492Z,99374.16
2023-03-06T09:56:24.382Z,99359.06
2023-03-06T10:01:57.050Z,99359.03
2023-03-06T10:07:23.886Z,99355.41
2023-03-06T10:13:02.192Z,99342.75
2023-03-06T10:18:24.168Z,99348.91
2023-03-06T10:23:51.659Z,99354.03
2023-03-06T10:29:13.488Z,99347.69
2023-03-06T10:34:39.606Z,99345.28
2023-03-06T10:40:22.299Z,99349.09
2023-03-06T10:45:50.593Z,99343.97
2023-03-06T10:51:19.223Z,99338.19
2023-03-06T10:56:43.278Z,99334.84
2023-03-06T11:02:23.495Z,99312.97
2023-03-06T11:07:56.942Z,99336.34
2023-03-06T11:13:24.628Z,99323.22
2023-03-06T11:19:38.836Z,99309.31
2023-03-06T11:25:00.996Z,99296.06
2023-03-06T11:30:30.516Z,99295.00
2023-03-06T11:36:09.639Z,99293.91
2023-03-06T11:41:50.642Z,99278.38
2023-03-06T11:47:23.857Z,99287.41
2023-03-06T11:52:55.188Z,99261.91
2023-03-06T11:58:54.737Z,99272.31
2023-03-06T12:04:45.196Z,99274.78
2023-03-06T12:10:17.383Z,99274.41
2023-03-06T12:15:54.609Z,99268.00
2023-03-06T12:22:10.231Z,99263.88
2023-03-06T12:28:19.417Z,99263.53
2023-03-06T12:33:47.025Z,99243.31
2023-03-06T12:39:17.655Z,99260.97
2023-03-06T12:45:04.884Z,99247.75
2023-03-06T12:50:27.900Z,99249.50
2023-03-06T12:55:50.829Z,99241.81
2023-03-06T13:01:31.662Z,99242.69
2023-03-06T13:07:19.813Z,99240.25
2023-03-06T13:12:47.869Z,99224.06
2023-03-06T13:18:21.955Z,99219.00
2023-03-06T13:23:50.118Z,99200.56
2023-03-06T13:29:36.657Z,99216.31
2023-03-06T13:34:58.982Z,99210.44
2023-03-06T13:40:35.323Z,99198.75
2023-03-06T13:46:14.042Z,99204.94
2023-03-06T13:51:54.162Z,99197.88
2023-03-06T13:57:48.671Z,99198.78
2023-03-06T14:03:10.490Z,99198.75
2023-03-06T14:08:33.807Z,99195.31
2023-03-06T14:13:57.063Z,99191.06
2023-03-06T14:19:19.465Z,99179.44
2023-03-06T14:24:51.068Z,99182.69
2023-03-06T14:30:16.697Z,99167.31
2023-03-06T14:35:38.632Z,99172.50
2023-03-06T14:41:01.619Z,99164.59
2023-03-06T14:46:23.734Z,99150.00
2023-03-06T14:51:51.367Z,99165.94
2023-03-06T14:57:18.517Z,99165.25
2023-03-06T15:02:40.661Z,99148.50
2023-03-06T15:08:06.726Z,99158.53
2023-03-06T15:13:31.051Z,99155.66
2023-03-06T15:19:02.854Z,99158.84
2023-03-06T15:24:36.235Z,99151.13
2023-03-06T15:30:21.795Z,99160.25
2023-03-06T15:36:00.892Z,99143.19
2023-03-06T15:41:34.921Z,99122.81
2023-03-06T15:47:07.742Z,99152.53
2023-03-06T15:52:30.002Z,99141.66
2023-03-06T15:57:56.750Z,99147.47
2023-03-06T16:03:18.775Z,99151.03
2023-03-06T16:08:40.653Z,99154.13
2023-03-06T16:14:02.559Z,99157.75
2023-03-06T16:19:27.401Z,99161.41
2023-03-06T16:24:49.457Z,99156.09
2023-03-06T16:30:17.856Z,99153.59
2023-03-06T16:35:40.782Z,99163.09
2023-03-06T16:41:02.712Z,99159.72
2023-03-06T16:46:25.388Z,99151.44
2023-03-06T16:51:47.628Z,99153.84
2023-03-06T16:57:14.083Z,99146.25
2023-03-06T17:02:35.806Z,99155.75
2023-03-06T17:07:57.727Z,99164.72
2023-03-06T17:13:19.629Z,99157.84
2023-03-06T17:18:42.639Z,99146.78
2023-03-06T17:24:04.774Z,99140.91
2023-03-06T17:29:26.615Z,99162.75
2023-03-06T17:34:48.468Z,99166.22
2023-03-06T17:40:11.145Z,99164.00
2023-03-06T17:45:36.388Z,99144.47
2023-03-06T17:50:58.571Z,99158.78
2023-03-06T17:56:20.720Z,99161.25
2023-03-06T18:01:42.779Z,99168.06
2023-03-06T18:07:04.913Z,99141.03
2023-03-06T18:12:26.864Z,99136.00
2023-03-06T18:17:49.023Z,99151.84
2023-03-06T18:23:11.033Z,99151.03
2023-03-06T18:28:32.980Z,99151.91
2023-03-06T18:33:57.403Z,99158.66
2023-03-06T18:39:20.130Z,99151.09
2023-03-06T18:44:42.065Z,99148.59
2023-03-06T18:50:04.317Z,99156.09
2023-03-06T18:55:26.423Z,99158.59
2023-03-06T19:00:49.186Z,99132.56
2023-03-06T19:06:13.277Z,99136.75
2023-03-06T19:11:35.330Z,99132.66
2023-03-06T19:16:57.427Z,99132.59
2023-03-06T19:22:19.338Z,99142.91
2023-03-06T19:27:41.292Z,99138.56
2023-03-06T19:33:03.444Z,99146.28
2023-03-06T19:38:25.411Z,99135.44
2023-03-06T19:43:51.350Z,99147.84
2023-03-06T19:49:15.751Z,99136.19
2023-03-06T19:54:37.965Z,99130.28
2023-03-06T19:59:59.946Z,99142.03
2023-03-06T20:05:22.525Z,99129.22
2023-03-06T20:10:44.405Z,99128.53
2023-03-06T20:16:06.976Z,99133.47
2023-03-06T20:21:31.418Z,99137.84
2023-03-06T20:26:53.350Z,99136.09
2023-03-06T20:32:15.243Z,99134.50
2023-03-06T20:37:38.029Z,99143.88
2023-03-06T20:42:59.922Z,99139.72
2023-03-06T20:48:21.818Z,99140.41
2023-03-06T20:53:43.744Z,99133.88
2023-03-06T20:59:06.984Z,99110.41
2023-03-06T21:04:28.871Z,99135.69
2023-03-06T21:09:50.751Z,99136.53
2023-03-06T21:15:12.699Z,99139.28
2023-03-06T21:20:38.795Z,99134.03
2023-03-06T21:26:00.932Z,99130.53
2023-03-06T21:31:22.891Z,99129.88
2023-03-06T21:36:44.846Z,99119.63
2023-03-06T21:42:06.900Z,99129.69
2023-03-06T21:47:28.744Z,99128.84
2023-03-06T21:52:51.671Z,99112.91
2023-03-06T21:58:13.583Z,99125.44
2023-03-06T22:03:35.635Z,99134.09
2023-03-06T22:08:59.441Z,99136.53
2023-03-06T22:14:21.421Z,99134.88
2023-03-06T22:19:43.361Z,99141.53
2023-03-06T22:25:06.740Z,99136.59
2023-03-06T22:30:28.815Z,99134.00
2023-03-06T22:35:50.771Z,99146.66
2023-03-06T22:41:15.338Z,99150.03
2023-03-06T22:46:38.636Z,99150.84
2023-03-06T22:52:00.626Z,99155.94
2023-03-06T22:57:22.827Z,99155.91
2023-03-06T23:02:44.878Z,99168.56
2023-03-06T23:08:06.773Z,99166.03
2023-03-06T23:13:28.690Z,99170.38
2023-03-06T23:18:52.504Z,99174.72
2023-03-06T23:24:14.410Z,99182.59
2023-03-06T23:29:36.271Z,99187.03
2023-03-06T23:34:58.194Z,99189.56
2023-03-06T23:40:20.081Z,99197.19
2023-03-06T23:45:41.944Z,99197.19
2023-03-06T23:51:08.934Z,99201.38
2023-03-06T23:56:30.925Z,99204.78
